sensor_id;sensor_type;location;lat;lon;timestamp;P1;durP1;ratioP1;P2;durP2;ratioP2
32485;SDS011;18935;52.236;21.134;2022-10-16T00:00:41;27.35;;;17.15;;
32485;SDS011;18935;52.236;21.134;2022-10-16T00:03:07;26.63;;;16.85;;
32485;SDS011;18935;52.236;21.134;2022-10-16T00:05:33;24.08;;;15.82;;
32485;SDS011;18935;52.236;21.134;2022-10-16T00:08:05;27.60;;;18.33;;
32485;SDS011;18935;52.236;21.134;2022-10-16T00:10:34;26.17;;;16.42;;
32485;SDS011;18935;52.236;21.134;2022-10-16T00:13:00;30.92;;;18.55;;
32485;SDS011;18935;52.236;21.134;2022-10-16T00:15:25;27.38;;;17.48;;
32485;SDS011;18935;52.236;21.134;2022-10-16T00:17:51;38.67;;;19.20;;
32485;SDS011;18935;52.236;21.134;2022-10-16T00:20:16;31.77;;;17.40;;
32485;SDS011;18935;52.236;21.134;2022-10-16T00:22:41;27.75;;;18.27;;
32485;SDS011;18935;52.236;21.134;2022-10-16T00:25:06;30.20;;;18.58;;
32485;SDS011;18935;52.236;21.134;2022-10-16T00:27:32;30.65;;;18.95;;
32485;SDS011;18935;52.236;21.134;2022-10-16T00:29:58;29.35;;;20.20;;
32485;SDS011;18935;52.236;21.134;2022-10-16T00:32:23;32.50;;;20.90;;
32485;SDS011;18935;52.236;21.134;2022-10-16T00:34:49;38.55;;;20.95;;
32485;SDS011;18935;52.236;21.134;2022-10-16T00:37:14;30.80;;;20.80;;
32485;SDS011;18935;52.236;21.134;2022-10-16T00:39:39;36.20;;;21.52;;
32485;SDS011;18935;52.236;21.134;2022-10-16T00:42:05;35.27;;;22.50;;
32485;SDS011;18935;52.236;21.134;2022-10-16T00:47:10;33.97;;;21.48;;
32485;SDS011;18935;52.236;21.134;2022-10-16T00:52:06;35.25;;;22.60;;
32485;SDS011;18935;52.236;21.134;2022-10-16T00:54:31;41.78;;;23.13;;
32485;SDS011;18935;52.236;21.134;2022-10-16T00:56:58;38.78;;;22.75;;
32485;SDS011;18935;52.236;21.134;2022-10-16T00:59:27;37.35;;;23.50;;
32485;SDS011;18935;52.236;21.134;2022-10-16T01:02:00;39.38;;;22.98;;
32485;SDS011;18935;52.236;21.134;2022-10-16T01:04:26;35.95;;;22.98;;
32485;SDS011;18935;52.236;21.134;2022-10-16T01:07:12;35.47;;;22.90;;
32485;SDS011;18935;52.236;21.134;2022-10-16T01:15:54;40.92;;;23.95;;
32485;SDS011;18935;52.236;21.134;2022-10-16T01:21:24;37.35;;;22.48;;
32485;SDS011;18935;52.236;21.134;2022-10-16T01:23:58;38.08;;;22.77;;
32485;SDS011;18935;52.236;21.134;2022-10-16T01:26:42;36.17;;;23.13;;
32485;SDS011;18935;52.236;21.134;2022-10-16T01:34:58;38.45;;;23.05;;
32485;SDS011;18935;52.236;21.134;2022-10-16T01:37:49;40.25;;;22.70;;
32485;SDS011;18935;52.236;21.134;2022-10-16T01:40:20;38.80;;;23.50;;
32485;SDS011;18935;52.236;21.134;2022-10-16T01:42:56;37.23;;;22.70;;
32485;SDS011;18935;52.236;21.134;2022-10-16T01:45:25;37.60;;;23.70;;
32485;SDS011;18935;52.236;21.134;2022-10-16T01:47:53;37.08;;;23.52;;
32485;SDS011;18935;52.236;21.134;2022-10-16T01:50:19;36.55;;;24.38;;
32485;SDS011;18935;52.236;21.134;2022-10-16T01:52:47;35.85;;;24.13;;
32485;SDS011;18935;52.236;21.134;2022-10-16T01:55:17;39.67;;;24.08;;
32485;SDS011;18935;52.236;21.134;2022-10-16T01:57:47;37.38;;;24.67;;
32485;SDS011;18935;52.236;21.134;2022-10-16T02:00:17;36.10;;;23.90;;
32485;SDS011;18935;52.236;21.134;2022-10-16T02:02:46;38.17;;;23.27;;
32485;SDS011;18935;52.236;21.134;2022-10-16T02:05:20;37.38;;;24.55;;
32485;SDS011;18935;52.236;21.134;2022-10-16T02:07:55;45.47;;;25.13;;
32485;SDS011;18935;52.236;21.134;2022-10-16T02:10:21;35.72;;;24.40;;
32485;SDS011;18935;52.236;21.134;2022-10-16T02:12:55;37.55;;;24.25;;
32485;SDS011;18935;52.236;21.134;2022-10-16T02:15:25;44.85;;;24.42;;
32485;SDS011;18935;52.236;21.134;2022-10-16T02:17:50;39.27;;;25.37;;
32485;SDS011;18935;52.236;21.134;2022-10-16T02:20:15;41.57;;;24.67;;
32485;SDS011;18935;52.236;21.134;2022-10-16T02:22:43;44.42;;;25.52;;
32485;SDS011;18935;52.236;21.134;2022-10-16T02:25:15;38.80;;;24.48;;
32485;SDS011;18935;52.236;21.134;2022-10-16T02:30:32;42.65;;;25.63;;
32485;SDS011;18935;52.236;21.134;2022-10-16T02:33:02;41.50;;;25.25;;
32485;SDS011;18935;52.236;21.134;2022-10-16T02:35:29;39.58;;;25.55;;
32485;SDS011;18935;52.236;21.134;2022-10-16T02:37:56;42.42;;;26.27;;
32485;SDS011;18935;52.236;21.134;2022-10-16T02:40:22;44.15;;;25.90;;
32485;SDS011;18935;52.236;21.134;2022-10-16T02:42:50;43.38;;;26.70;;
32485;SDS011;18935;52.236;21.134;2022-10-16T02:45:17;39.83;;;25.90;;
32485;SDS011;18935;52.236;21.134;2022-10-16T02:47:42;47.78;;;26.45;;
32485;SDS011;18935;52.236;21.134;2022-10-16T02:50:08;40.20;;;25.80;;
32485;SDS011;18935;52.236;21.134;2022-10-16T02:52:33;43.30;;;25.67;;
32485;SDS011;18935;52.236;21.134;2022-10-16T02:54:59;41.67;;;26.00;;
32485;SDS011;18935;52.236;21.134;2022-10-16T02:57:24;42.17;;;25.17;;
32485;SDS011;18935;52.236;21.134;2022-10-16T02:59:49;39.25;;;25.90;;
32485;SDS011;18935;52.236;21.134;2022-10-16T03:02:14;39.63;;;25.30;;
32485;SDS011;18935;52.236;21.134;2022-10-16T03:04:40;45.97;;;26.10;;
32485;SDS011;18935;52.236;21.134;2022-10-16T03:07:05;46.78;;;26.30;;
32485;SDS011;18935;52.236;21.134;2022-10-16T03:09:30;38.08;;;24.20;;
32485;SDS011;18935;52.236;21.134;2022-10-16T03:11:56;36.70;;;24.63;;
32485;SDS011;18935;52.236;21.134;2022-10-16T03:14:21;41.20;;;24.97;;
32485;SDS011;18935;52.236;21.134;2022-10-16T03:16:46;39.03;;;24.83;;
32485;SDS011;18935;52.236;21.134;2022-10-16T03:19:11;39.60;;;25.40;;
32485;SDS011;18935;52.236;21.134;2022-10-16T03:21:37;37.47;;;24.77;;
32485;SDS011;18935;52.236;21.134;2022-10-16T03:24:02;41.38;;;24.30;;
32485;SDS011;18935;52.236;21.134;2022-10-16T03:26:28;41.63;;;25.20;;
32485;SDS011;18935;52.236;21.134;2022-10-16T03:28:53;39.87;;;25.57;;
32485;SDS011;18935;52.236;21.134;2022-10-16T03:31:18;38.17;;;24.37;;
32485;SDS011;18935;52.236;21.134;2022-10-16T03:33:43;37.22;;;24.83;;
32485;SDS011;18935;52.236;21.134;2022-10-16T03:36:09;38.87;;;25.10;;
32485;SDS011;18935;52.236;21.134;2022-10-16T03:38:34;38.50;;;24.23;;
32485;SDS011;18935;52.236;21.134;2022-10-16T03:40:59;35.25;;;23.30;;
32485;SDS011;18935;52.236;21.134;2022-10-16T03:43:24;37.28;;;24.20;;
32485;SDS011;18935;52.236;21.134;2022-10-16T03:45:50;41.42;;;24.60;;
32485;SDS011;18935;52.236;21.134;2022-10-16T03:48:16;39.28;;;23.70;;
32485;SDS011;18935;52.236;21.134;2022-10-16T03:50:42;38.08;;;24.55;;
32485;SDS011;18935;52.236;21.134;2022-10-16T03:53:07;43.72;;;25.27;;
32485;SDS011;18935;52.236;21.134;2022-10-16T03:55:33;38.00;;;25.03;;
32485;SDS011;18935;52.236;21.134;2022-10-16T03:57:58;35.70;;;22.17;;
32485;SDS011;18935;52.236;21.134;2022-10-16T04:00:23;41.35;;;24.45;;
32485;SDS011;18935;52.236;21.134;2022-10-16T04:02:48;36.50;;;23.43;;
32485;SDS011;18935;52.236;21.134;2022-10-16T04:05:14;37.10;;;23.57;;
32485;SDS011;18935;52.236;21.134;2022-10-16T04:07:39;39.03;;;23.75;;
32485;SDS011;18935;52.236;21.134;2022-10-16T04:10:04;39.03;;;22.60;;
32485;SDS011;18935;52.236;21.134;2022-10-16T04:12:30;44.33;;;24.58;;
32485;SDS011;18935;52.236;21.134;2022-10-16T04:14:55;33.67;;;22.27;;
32485;SDS011;18935;52.236;21.134;2022-10-16T04:17:21;38.93;;;23.10;;
32485;SDS011;18935;52.236;21.134;2022-10-16T04:19:46;34.25;;;22.95;;
32485;SDS011;18935;52.236;21.134;2022-10-16T04:22:11;37.43;;;23.53;;
32485;SDS011;18935;52.236;21.134;2022-10-16T04:24:37;38.08;;;22.10;;
32485;SDS011;18935;52.236;21.134;2022-10-16T04:27:02;34.97;;;23.17;;
32485;SDS011;18935;52.236;21.134;2022-10-16T04:29:27;38.33;;;22.80;;
32485;SDS011;18935;52.236;21.134;2022-10-16T04:31:53;37.35;;;22.48;;
32485;SDS011;18935;52.236;21.134;2022-10-16T04:34:18;37.45;;;24.20;;
32485;SDS011;18935;52.236;21.134;2022-10-16T04:36:43;39.38;;;22.88;;
32485;SDS011;18935;52.236;21.134;2022-10-16T04:39:11;38.70;;;23.23;;
32485;SDS011;18935;52.236;21.134;2022-10-16T04:41:36;39.00;;;24.30;;
32485;SDS011;18935;52.236;21.134;2022-10-16T04:44:02;38.00;;;24.03;;
32485;SDS011;18935;52.236;21.134;2022-10-16T04:46:27;35.53;;;24.02;;
32485;SDS011;18935;52.236;21.134;2022-10-16T04:48:53;37.35;;;24.23;;
32485;SDS011;18935;52.236;21.134;2022-10-16T04:51:18;43.78;;;25.83;;
32485;SDS011;18935;52.236;21.134;2022-10-16T04:53:44;37.85;;;23.30;;
32485;SDS011;18935;52.236;21.134;2022-10-16T04:56:09;34.00;;;23.17;;
32485;SDS011;18935;52.236;21.134;2022-10-16T04:58:34;44.67;;;22.90;;
32485;SDS011;18935;52.236;21.134;2022-10-16T05:00:59;36.40;;;23.03;;
32485;SDS011;18935;52.236;21.134;2022-10-16T05:03:25;35.90;;;23.00;;
32485;SDS011;18935;52.236;21.134;2022-10-16T05:05:50;38.73;;;24.40;;
32485;SDS011;18935;52.236;21.134;2022-10-16T05:08:16;38.03;;;23.90;;
32485;SDS011;18935;52.236;21.134;2022-10-16T05:10:42;39.45;;;23.90;;
32485;SDS011;18935;52.236;21.134;2022-10-16T05:13:07;35.38;;;23.83;;
32485;SDS011;18935;52.236;21.134;2022-10-16T05:15:33;33.08;;;22.48;;
32485;SDS011;18935;52.236;21.134;2022-10-16T05:17:59;45.20;;;24.15;;
32485;SDS011;18935;52.236;21.134;2022-10-16T05:20:24;34.27;;;23.20;;
32485;SDS011;18935;52.236;21.134;2022-10-16T05:22:49;38.22;;;22.63;;
32485;SDS011;18935;52.236;21.134;2022-10-16T05:25:15;34.20;;;23.50;;
32485;SDS011;18935;52.236;21.134;2022-10-16T05:27:40;34.67;;;23.30;;
32485;SDS011;18935;52.236;21.134;2022-10-16T05:30:06;40.20;;;22.50;;
32485;SDS011;18935;52.236;21.134;2022-10-16T05:32:32;33.40;;;22.38;;
32485;SDS011;18935;52.236;21.134;2022-10-16T05:34:57;44.30;;;23.58;;
32485;SDS011;18935;52.236;21.134;2022-10-16T05:37:24;37.38;;;22.85;;
32485;SDS011;18935;52.236;21.134;2022-10-16T05:39:50;36.70;;;22.98;;
32485;SDS011;18935;52.236;21.134;2022-10-16T05:42:15;33.40;;;22.23;;
32485;SDS011;18935;52.236;21.134;2022-10-16T05:44:41;36.72;;;22.27;;
32485;SDS011;18935;52.236;21.134;2022-10-16T05:47:06;34.92;;;22.20;;
32485;SDS011;18935;52.236;21.134;2022-10-16T05:49:31;37.75;;;23.42;;
32485;SDS011;18935;52.236;21.134;2022-10-16T05:51:57;35.30;;;22.77;;
32485;SDS011;18935;52.236;21.134;2022-10-16T05:54:22;35.38;;;21.83;;
32485;SDS011;18935;52.236;21.134;2022-10-16T05:56:47;38.10;;;21.97;;
32485;SDS011;18935;52.236;21.134;2022-10-16T05:59:12;36.63;;;22.17;;
32485;SDS011;18935;52.236;21.134;2022-10-16T06:01:38;34.92;;;21.42;;
32485;SDS011;18935;52.236;21.134;2022-10-16T06:04:03;33.30;;;21.73;;
32485;SDS011;18935;52.236;21.134;2022-10-16T06:06:29;31.60;;;21.52;;
32485;SDS011;18935;52.236;21.134;2022-10-16T06:08:55;32.33;;;21.85;;
32485;SDS011;18935;52.236;21.134;2022-10-16T06:11:23;31.65;;;20.80;;
32485;SDS011;18935;52.236;21.134;2022-10-16T06:13:51;36.63;;;22.80;;
32485;SDS011;18935;52.236;21.134;2022-10-16T06:16:17;34.47;;;21.55;;
32485;SDS011;18935;52.236;21.134;2022-10-16T06:18:42;33.42;;;20.75;;
32485;SDS011;18935;52.236;21.134;2022-10-16T06:21:09;33.65;;;20.65;;
32485;SDS011;18935;52.236;21.134;2022-10-16T06:23:41;31.98;;;20.33;;
32485;SDS011;18935;52.236;21.134;2022-10-16T06:28:33;29.13;;;20.13;;
32485;SDS011;18935;52.236;21.134;2022-10-16T06:30:59;37.47;;;20.95;;
32485;SDS011;18935;52.236;21.134;2022-10-16T06:33:25;33.63;;;20.55;;
32485;SDS011;18935;52.236;21.134;2022-10-16T06:35:50;34.27;;;21.10;;
32485;SDS011;18935;52.236;21.134;2022-10-16T06:38:15;38.33;;;21.30;;
32485;SDS011;18935;52.236;21.134;2022-10-16T06:40:41;31.67;;;20.03;;
32485;SDS011;18935;52.236;21.134;2022-10-16T06:43:06;30.23;;;20.27;;
32485;SDS011;18935;52.236;21.134;2022-10-16T06:45:31;30.85;;;20.65;;
32485;SDS011;18935;52.236;21.134;2022-10-16T06:47:56;31.13;;;20.17;;
32485;SDS011;18935;52.236;21.134;2022-10-16T06:50:22;33.63;;;20.50;;
32485;SDS011;18935;52.236;21.134;2022-10-16T06:52:47;32.00;;;19.77;;
32485;SDS011;18935;52.236;21.134;2022-10-16T06:55:12;33.70;;;19.50;;
32485;SDS011;18935;52.236;21.134;2022-10-16T06:57:38;26.73;;;19.58;;
32485;SDS011;18935;52.236;21.134;2022-10-16T07:00:03;33.10;;;19.60;;
32485;SDS011;18935;52.236;21.134;2022-10-16T07:02:29;34.55;;;20.10;;
32485;SDS011;18935;52.236;21.134;2022-10-16T07:04:54;29.80;;;19.03;;
32485;SDS011;18935;52.236;21.134;2022-10-16T07:07:21;30.75;;;20.45;;
32485;SDS011;18935;52.236;21.134;2022-10-16T07:09:49;28.75;;;18.48;;
32485;SDS011;18935;52.236;21.134;2022-10-16T07:12:14;27.85;;;17.75;;
32485;SDS011;18935;52.236;21.134;2022-10-16T07:14:40;25.90;;;19.03;;
32485;SDS011;18935;52.236;21.134;2022-10-16T07:17:05;30.45;;;18.63;;
32485;SDS011;18935;52.236;21.134;2022-10-16T07:19:30;31.38;;;18.50;;
32485;SDS011;18935;52.236;21.134;2022-10-16T07:21:56;29.95;;;17.42;;
32485;SDS011;18935;52.236;21.134;2022-10-16T07:24:22;28.73;;;18.67;;
32485;SDS011;18935;52.236;21.134;2022-10-16T07:26:47;30.38;;;17.65;;
32485;SDS011;18935;52.236;21.134;2022-10-16T07:29:16;27.45;;;18.13;;
32485;SDS011;18935;52.236;21.134;2022-10-16T07:31:43;28.10;;;18.80;;
32485;SDS011;18935;52.236;21.134;2022-10-16T07:34:09;28.05;;;17.70;;
32485;SDS011;18935;52.236;21.134;2022-10-16T07:36:36;29.88;;;18.17;;
32485;SDS011;18935;52.236;21.134;2022-10-16T07:39:01;28.60;;;17.73;;
32485;SDS011;18935;52.236;21.134;2022-10-16T07:41:27;27.67;;;18.52;;
32485;SDS011;18935;52.236;21.134;2022-10-16T07:43:53;34.03;;;18.63;;
32485;SDS011;18935;52.236;21.134;2022-10-16T07:46:19;26.10;;;17.58;;
32485;SDS011;18935;52.236;21.134;2022-10-16T07:48:46;35.55;;;18.80;;
32485;SDS011;18935;52.236;21.134;2022-10-16T07:51:17;27.95;;;17.90;;
32485;SDS011;18935;52.236;21.134;2022-10-16T07:53:44;26.85;;;17.00;;
32485;SDS011;18935;52.236;21.134;2022-10-16T07:56:09;27.60;;;18.25;;
32485;SDS011;18935;52.236;21.134;2022-10-16T07:58:35;27.02;;;17.40;;
32485;SDS011;18935;52.236;21.134;2022-10-16T08:01:09;24.15;;;17.30;;
32485;SDS011;18935;52.236;21.134;2022-10-16T08:03:35;24.30;;;16.92;;
32485;SDS011;18935;52.236;21.134;2022-10-16T08:06:01;27.20;;;17.17;;
32485;SDS011;18935;52.236;21.134;2022-10-16T08:08:30;31.00;;;17.70;;
32485;SDS011;18935;52.236;21.134;2022-10-16T08:10:56;31.63;;;17.02;;
32485;SDS011;18935;52.236;21.134;2022-10-16T08:13:21;23.27;;;15.82;;
32485;SDS011;18935;52.236;21.134;2022-10-16T08:15:46;19.83;;;15.02;;
32485;SDS011;18935;52.236;21.134;2022-10-16T08:18:12;27.48;;;15.27;;
32485;SDS011;18935;52.236;21.134;2022-10-16T08:20:39;27.15;;;15.25;;
32485;SDS011;18935;52.236;21.134;2022-10-16T08:23:05;22.10;;;15.23;;
32485;SDS011;18935;52.236;21.134;2022-10-16T08:25:30;24.00;;;14.40;;
32485;SDS011;18935;52.236;21.134;2022-10-16T08:27:56;29.55;;;17.55;;
32485;SDS011;18935;52.236;21.134;2022-10-16T08:30:23;20.13;;;14.40;;
32485;SDS011;18935;52.236;21.134;2022-10-16T08:32:49;25.95;;;16.10;;
32485;SDS011;18935;52.236;21.134;2022-10-16T08:35:15;33.75;;;17.48;;
32485;SDS011;18935;52.236;21.134;2022-10-16T08:37:44;27.88;;;15.65;;
32485;SDS011;18935;52.236;21.134;2022-10-16T08:40:20;19.92;;;13.82;;
32485;SDS011;18935;52.236;21.134;2022-10-16T08:43:02;25.00;;;14.38;;
32485;SDS011;18935;52.236;21.134;2022-10-16T08:45:51;20.55;;;14.23;;
32485;SDS011;18935;52.236;21.134;2022-10-16T08:51:18;27.50;;;15.18;;
32485;SDS011;18935;52.236;21.134;2022-10-16T08:54:02;21.65;;;13.45;;
32485;SDS011;18935;52.236;21.134;2022-10-16T08:56:29;26.90;;;15.23;;
32485;SDS011;18935;52.236;21.134;2022-10-16T08:58:54;20.77;;;14.25;;
32485;SDS011;18935;52.236;21.134;2022-10-16T09:01:22;23.42;;;14.93;;
32485;SDS011;18935;52.236;21.134;2022-10-16T09:04:20;20.75;;;14.32;;
32485;SDS011;18935;52.236;21.134;2022-10-16T09:07:12;21.15;;;13.35;;
32485;SDS011;18935;52.236;21.134;2022-10-16T09:15:13;21.42;;;12.73;;
32485;SDS011;18935;52.236;21.134;2022-10-16T09:23:38;22.67;;;12.00;;
32485;SDS011;18935;52.236;21.134;2022-10-16T09:26:03;21.55;;;13.45;;
32485;SDS011;18935;52.236;21.134;2022-10-16T09:28:30;20.02;;;12.82;;
32485;SDS011;18935;52.236;21.134;2022-10-16T09:30:55;20.75;;;13.40;;
32485;SDS011;18935;52.236;21.134;2022-10-16T09:33:22;20.23;;;13.10;;
32485;SDS011;18935;52.236;21.134;2022-10-16T09:38:21;22.05;;;13.27;;
32485;SDS011;18935;52.236;21.134;2022-10-16T09:40:49;18.33;;;13.10;;
32485;SDS011;18935;52.236;21.134;2022-10-16T09:46:33;18.67;;;12.90;;
32485;SDS011;18935;52.236;21.134;2022-10-16T09:49:01;21.20;;;13.13;;
32485;SDS011;18935;52.236;21.134;2022-10-16T09:51:43;19.77;;;12.93;;
32485;SDS011;18935;52.236;21.134;2022-10-16T09:56:34;19.70;;;12.50;;
32485;SDS011;18935;52.236;21.134;2022-10-16T09:59:20;27.90;;;14.20;;
32485;SDS011;18935;52.236;21.134;2022-10-16T10:01:49;24.55;;;12.40;;
32485;SDS011;18935;52.236;21.134;2022-10-16T10:04:17;26.40;;;13.05;;
32485;SDS011;18935;52.236;21.134;2022-10-16T10:06:50;22.15;;;12.50;;
32485;SDS011;18935;52.236;21.134;2022-10-16T10:09:21;21.00;;;13.32;;
32485;SDS011;18935;52.236;21.134;2022-10-16T10:14:18;19.87;;;13.60;;
32485;SDS011;18935;52.236;21.134;2022-10-16T10:16:48;18.58;;;12.07;;
32485;SDS011;18935;52.236;21.134;2022-10-16T10:19:18;20.27;;;12.57;;
32485;SDS011;18935;52.236;21.134;2022-10-16T10:21:45;18.23;;;12.48;;
32485;SDS011;18935;52.236;21.134;2022-10-16T10:24:15;18.60;;;11.38;;
32485;SDS011;18935;52.236;21.134;2022-10-16T10:26:49;21.25;;;12.23;;
32485;SDS011;18935;52.236;21.134;2022-10-16T10:32:12;17.40;;;11.63;;
32485;SDS011;18935;52.236;21.134;2022-10-16T10:37:23;19.95;;;12.60;;
32485;SDS011;18935;52.236;21.134;2022-10-16T10:40:04;18.80;;;11.40;;
32485;SDS011;18935;52.236;21.134;2022-10-16T10:42:36;15.23;;;11.38;;
32485;SDS011;18935;52.236;21.134;2022-10-16T10:45:20;18.90;;;11.85;;
32485;SDS011;18935;52.236;21.134;2022-10-16T10:47:59;17.13;;;11.88;;
32485;SDS011;18935;52.236;21.134;2022-10-16T10:50:36;15.85;;;11.35;;
32485;SDS011;18935;52.236;21.134;2022-10-16T10:59:29;19.17;;;12.10;;
32485;SDS011;18935;52.236;21.134;2022-10-16T11:07:33;17.50;;;10.48;;
32485;SDS011;18935;52.236;21.134;2022-10-16T11:10:04;14.35;;;10.23;;
32485;SDS011;18935;52.236;21.134;2022-10-16T11:12:42;16.73;;;10.35;;
32485;SDS011;18935;52.236;21.134;2022-10-16T11:15:14;14.68;;;10.52;;
32485;SDS011;18935;52.236;21.134;2022-10-16T11:23:28;14.52;;;10.70;;
32485;SDS011;18935;52.236;21.134;2022-10-16T11:26:01;16.17;;;10.93;;
32485;SDS011;18935;52.236;21.134;2022-10-16T11:28:34;14.63;;;10.70;;
32485;SDS011;18935;52.236;21.134;2022-10-16T11:31:10;21.25;;;10.65;;
32485;SDS011;18935;52.236;21.134;2022-10-16T11:33:47;16.85;;;10.77;;
32485;SDS011;18935;52.236;21.134;2022-10-16T11:36:21;17.48;;;11.07;;
32485;SDS011;18935;52.236;21.134;2022-10-16T11:39:16;14.98;;;10.50;;
32485;SDS011;18935;52.236;21.134;2022-10-16T11:42:05;14.85;;;9.85;;
32485;SDS011;18935;52.236;21.134;2022-10-16T11:53:26;19.33;;;10.80;;
32485;SDS011;18935;52.236;21.134;2022-10-16T11:56:00;15.68;;;10.73;;
32485;SDS011;18935;52.236;21.134;2022-10-16T11:58:42;14.77;;;9.07;;
32485;SDS011;18935;52.236;21.134;2022-10-16T12:01:38;14.00;;;9.32;;
32485;SDS011;18935;52.236;21.134;2022-10-16T12:07:11;12.70;;;9.65;;
32485;SDS011;18935;52.236;21.134;2022-10-16T12:09:49;14.98;;;10.20;;
32485;SDS011;18935;52.236;21.134;2022-10-16T12:15:18;14.07;;;8.88;;
32485;SDS011;18935;52.236;21.134;2022-10-16T12:17:52;18.25;;;9.40;;
32485;SDS011;18935;52.236;21.134;2022-10-16T12:20:33;11.63;;;9.13;;
32485;SDS011;18935;52.236;21.134;2022-10-16T12:23:02;13.40;;;9.82;;
32485;SDS011;18935;52.236;21.134;2022-10-16T12:27:56;18.50;;;9.30;;
32485;SDS011;18935;52.236;21.134;2022-10-16T12:30:24;14.15;;;8.75;;
32485;SDS011;18935;52.236;21.134;2022-10-16T12:32:55;22.60;;;9.77;;
32485;SDS011;18935;52.236;21.134;2022-10-16T12:35:30;14.80;;;10.75;;
32485;SDS011;18935;52.236;21.134;2022-10-16T12:38:05;19.63;;;11.13;;
32485;SDS011;18935;52.236;21.134;2022-10-16T12:40:41;12.82;;;9.13;;
32485;SDS011;18935;52.236;21.134;2022-10-16T12:43:35;16.63;;;10.32;;
32485;SDS011;18935;52.236;21.134;2022-10-16T12:48:33;17.30;;;9.77;;
32485;SDS011;18935;52.236;21.134;2022-10-16T12:51:09;18.45;;;10.10;;
32485;SDS011;18935;52.236;21.134;2022-10-16T13:00:02;17.08;;;10.45;;
32485;SDS011;18935;52.236;21.134;2022-10-16T13:05:24;15.48;;;9.88;;
32485;SDS011;18935;52.236;21.134;2022-10-16T13:08:06;15.23;;;9.98;;
32485;SDS011;18935;52.236;21.134;2022-10-16T13:11:24;16.08;;;10.75;;
32485;SDS011;18935;52.236;21.134;2022-10-16T13:16:41;18.40;;;10.35;;
32485;SDS011;18935;52.236;21.134;2022-10-16T13:19:18;14.43;;;10.15;;
32485;SDS011;18935;52.236;21.134;2022-10-16T13:22:10;13.55;;;10.30;;
32485;SDS011;18935;52.236;21.134;2022-10-16T13:30:12;15.10;;;10.38;;
32485;SDS011;18935;52.236;21.134;2022-10-16T13:32:47;16.13;;;10.82;;
32485;SDS011;18935;52.236;21.134;2022-10-16T13:35:19;14.52;;;10.20;;
32485;SDS011;18935;52.236;21.134;2022-10-16T13:37:49;14.35;;;10.10;;
32485;SDS011;18935;52.236;21.134;2022-10-16T13:40:22;15.63;;;10.52;;
32485;SDS011;18935;52.236;21.134;2022-10-16T13:42:49;15.40;;;10.75;;
32485;SDS011;18935;52.236;21.134;2022-10-16T13:45:23;17.33;;;10.48;;
32485;SDS011;18935;52.236;21.134;2022-10-16T13:48:01;20.77;;;12.15;;
32485;SDS011;18935;52.236;21.134;2022-10-16T13:53:12;14.60;;;10.50;;
32485;SDS011;18935;52.236;21.134;2022-10-16T13:55:38;16.38;;;10.60;;
32485;SDS011;18935;52.236;21.134;2022-10-16T13:58:04;17.75;;;10.32;;
32485;SDS011;18935;52.236;21.134;2022-10-16T14:00:36;18.33;;;11.98;;
32485;SDS011;18935;52.236;21.134;2022-10-16T14:03:03;18.17;;;12.68;;
32485;SDS011;18935;52.236;21.134;2022-10-16T14:05:30;37.97;;;24.13;;
32485;SDS011;18935;52.236;21.134;2022-10-16T14:07:56;27.63;;;16.00;;
32485;SDS011;18935;52.236;21.134;2022-10-16T14:10:23;19.35;;;12.60;;
32485;SDS011;18935;52.236;21.134;2022-10-16T14:13:02;19.95;;;12.98;;
32485;SDS011;18935;52.236;21.134;2022-10-16T14:15:31;19.08;;;11.38;;
32485;SDS011;18935;52.236;21.134;2022-10-16T14:17:59;17.48;;;12.48;;
32485;SDS011;18935;52.236;21.134;2022-10-16T14:20:26;17.13;;;11.90;;
32485;SDS011;18935;52.236;21.134;2022-10-16T14:23:03;17.27;;;11.95;;
32485;SDS011;18935;52.236;21.134;2022-10-16T14:26:15;26.00;;;17.98;;
32485;SDS011;18935;52.236;21.134;2022-10-16T14:28:44;22.23;;;13.85;;
32485;SDS011;18935;52.236;21.134;2022-10-16T14:31:24;16.33;;;11.68;;
32485;SDS011;18935;52.236;21.134;2022-10-16T14:33:51;17.00;;;11.18;;
32485;SDS011;18935;52.236;21.134;2022-10-16T14:36:16;17.90;;;10.75;;
32485;SDS011;18935;52.236;21.134;2022-10-16T14:41:33;18.85;;;11.93;;
32485;SDS011;18935;52.236;21.134;2022-10-16T14:44:06;13.95;;;10.90;;
32485;SDS011;18935;52.236;21.134;2022-10-16T14:46:36;20.55;;;11.05;;
32485;SDS011;18935;52.236;21.134;2022-10-16T14:49:05;13.45;;;9.90;;
32485;SDS011;18935;52.236;21.134;2022-10-16T14:51:42;17.15;;;10.07;;
32485;SDS011;18935;52.236;21.134;2022-10-16T14:54:09;15.02;;;9.93;;
32485;SDS011;18935;52.236;21.134;2022-10-16T14:59:36;15.43;;;10.47;;
32485;SDS011;18935;52.236;21.134;2022-10-16T15:05:02;25.73;;;17.37;;
32485;SDS011;18935;52.236;21.134;2022-10-16T15:07:49;16.15;;;11.95;;
32485;SDS011;18935;52.236;21.134;2022-10-16T15:10:18;15.80;;;10.73;;
32485;SDS011;18935;52.236;21.134;2022-10-16T15:12:50;20.92;;;12.10;;
32485;SDS011;18935;52.236;21.134;2022-10-16T15:15:25;19.60;;;11.63;;
32485;SDS011;18935;52.236;21.134;2022-10-16T15:18:03;21.48;;;10.85;;
32485;SDS011;18935;52.236;21.134;2022-10-16T15:20:30;18.40;;;11.43;;
32485;SDS011;18935;52.236;21.134;2022-10-16T15:22:59;17.63;;;11.50;;
32485;SDS011;18935;52.236;21.134;2022-10-16T15:25:27;17.08;;;11.75;;
32485;SDS011;18935;52.236;21.134;2022-10-16T15:27:57;19.98;;;11.93;;
32485;SDS011;18935;52.236;21.134;2022-10-16T15:30:23;16.85;;;11.23;;
32485;SDS011;18935;52.236;21.134;2022-10-16T15:32:48;17.35;;;11.95;;
32485;SDS011;18935;52.236;21.134;2022-10-16T15:35:13;24.23;;;12.13;;
32485;SDS011;18935;52.236;21.134;2022-10-16T15:37:40;17.00;;;11.63;;
32485;SDS011;18935;52.236;21.134;2022-10-16T15:40:06;19.23;;;11.43;;
32485;SDS011;18935;52.236;21.134;2022-10-16T15:42:31;20.90;;;11.45;;
32485;SDS011;18935;52.236;21.134;2022-10-16T15:44:56;17.33;;;12.20;;
32485;SDS011;18935;52.236;21.134;2022-10-16T15:47:22;22.37;;;12.83;;
32485;SDS011;18935;52.236;21.134;2022-10-16T15:49:47;15.68;;;11.85;;
32485;SDS011;18935;52.236;21.134;2022-10-16T15:52:12;15.32;;;11.18;;
32485;SDS011;18935;52.236;21.134;2022-10-16T15:54:38;17.73;;;11.80;;
32485;SDS011;18935;52.236;21.134;2022-10-16T15:57:03;18.43;;;11.73;;
32485;SDS011;18935;52.236;21.134;2022-10-16T15:59:28;16.10;;;11.43;;
32485;SDS011;18935;52.236;21.134;2022-10-16T16:01:53;20.17;;;12.02;;
32485;SDS011;18935;52.236;21.134;2022-10-16T16:04:19;20.98;;;12.60;;
32485;SDS011;18935;52.236;21.134;2022-10-16T16:06:44;18.50;;;12.80;;
32485;SDS011;18935;52.236;21.134;2022-10-16T16:09:13;22.53;;;12.90;;
32485;SDS011;18935;52.236;21.134;2022-10-16T16:11:39;26.92;;;17.70;;
32485;SDS011;18935;52.236;21.134;2022-10-16T16:14:09;21.55;;;13.18;;
32485;SDS011;18935;52.236;21.134;2022-10-16T16:16:37;18.40;;;12.93;;
32485;SDS011;18935;52.236;21.134;2022-10-16T16:19:05;20.00;;;12.63;;
32485;SDS011;18935;52.236;21.134;2022-10-16T16:21:32;22.92;;;13.77;;